sensor_id;sensor_type;location;lat;lon;timestamp;temperature;humidity
56428;DHT22;42331;53.578;9.760;2023-02-28T00:00:40;3.20;99.90
56428;DHT22;42331;53.578;9.760;2023-02-28T00:03:11;3.20;99.90
56428;DHT22;42331;53.578;9.760;2023-02-28T00:05:42;3.20;99.90
56428;DHT22;42331;53.578;9.760;2023-02-28T00:08:12;3.20;99.90
56428;DHT22;42331;53.578;9.760;2023-02-28T00:10:43;3.10;99.90
56428;DHT22;42331;53.578;9.760;2023-02-28T00:13:14;3.20;99.90
56428;DHT22;42331;53.578;9.760;2023-02-28T00:15:45;3.10;99.90
56428;DHT22;42331;53.578;9.760;2023-02-28T00:18:16;3.00;99.90
56428;DHT22;42331;53.578;9.760;2023-02-28T00:20:47;3.00;99.90
56428;DHT22;42331;53.578;9.760;2023-02-28T00:23:17;3.00;99.90
56428;DHT22;42331;53.578;9.760;2023-02-28T00:25:48;3.00;99.90
56428;DHT22;42331;53.578;9.760;2023-02-28T00:28:19;3.00;99.90
56428;DHT22;42331;53.578;9.760;2023-02-28T00:30:50;3.00;99.90
56428;DHT22;42331;53.578;9.760;2023-02-28T00:33:20;3.00;99.90
56428;DHT22;42331;53.578;9.760;2023-02-28T00:35:51;2.90;99.90
56428;DHT22;42331;53.578;9.760;2023-02-28T00:38:22;2.90;99.90
56428;DHT22;42331;53.578;9.760;2023-02-28T00:40:52;2.90;99.90
56428;DHT22;42331;53.578;9.760;2023-02-28T00:43:23;2.90;99.90
56428;DHT22;42331;53.578;9.760;2023-02-28T00:45:54;2.90;99.90
56428;DHT22;42331;53.578;9.760;2023-02-28T00:48:25;3.00;99.90
56428;DHT22;42331;53.578;9.760;2023-02-28T00:50:55;3.00;99.90
56428;DHT22;42331;53.578;9.760;2023-02-28T00:53:26;3.00;99.90
56428;DHT22;42331;53.578;9.760;2023-02-28T00:55:57;3.00;99.90
56428;DHT22;42331;53.578;9.760;2023-02-28T00:58:28;3.00;99.90
56428;DHT22;42331;53.578;9.760;2023-02-28T01:00:58;3.00;99.90
56428;DHT22;42331;53.578;9.760;2023-02-28T01:03:29;2.90;99.90
56428;DHT22;42331;53.578;9.760;2023-02-28T01:06:00;2.90;99.90
56428;DHT22;42331;53.578;9.760;2023-02-28T01:08:30;2.90;99.90
56428;DHT22;42331;53.578;9.760;2023-02-28T01:11:11;2.80;99.90
56428;DHT22;42331;53.578;9.760;2023-02-28T01:13:43;2.90;99.90
56428;DHT22;42331;53.578;9.760;2023-02-28T01:16:15;2.90;99.90
56428;DHT22;42331;53.578;9.760;2023-02-28T01:18:46;2.80;99.90
56428;DHT22;42331;53.578;9.760;2023-02-28T01:21:18;2.70;99.90
56428;DHT22;42331;53.578;9.760;2023-02-28T01:23:49;2.70;99.90
56428;DHT22;42331;53.578;9.760;2023-02-28T01:26:22;2.60;99.90
56428;DHT22;42331;53.578;9.760;2023-02-28T01:28:53;2.60;99.90
56428;DHT22;42331;53.578;9.760;2023-02-28T01:31:24;2.50;99.90
56428;DHT22;42331;53.578;9.760;2023-02-28T01:33:55;2.50;99.90
56428;DHT22;42331;53.578;9.760;2023-02-28T01:36:26;2.50;99.90
56428;DHT22;42331;53.578;9.760;2023-02-28T01:38:56;2.50;99.90
56428;DHT22;42331;53.578;9.760;2023-02-28T01:41:30;2.50;99.90
56428;DHT22;42331;53.578;9.760;2023-02-28T01:44:07;2.50;99.90
56428;DHT22;42331;53.578;9.760;2023-02-28T01:46:57;2.50;99.90
56428;DHT22;42331;53.578;9.760;2023-02-28T01:49:27;2.50;99.90
56428;DHT22;42331;53.578;9.760;2023-02-28T01:51:58;2.50;99.90
56428;DHT22;42331;53.578;9.760;2023-02-28T01:54:34;2.50;99.90
56428;DHT22;42331;53.578;9.760;2023-02-28T01:57:09;2.60;99.90
56428;DHT22;42331;53.578;9.760;2023-02-28T01:59:54;2.50;99.90
56428;DHT22;42331;53.578;9.760;2023-02-28T02:02:27;2.50;99.90
56428;DHT22;42331;53.578;9.760;2023-02-28T02:05:03;2.40;99.90
56428;DHT22;42331;53.578;9.760;2023-02-28T02:07:38;2.40;99.90
56428;DHT22;42331;53.578;9.760;2023-02-28T02:10:18;2.40;99.90
56428;DHT22;42331;53.578;9.760;2023-02-28T02:15:58;2.40;99.90
56428;DHT22;42331;53.578;9.760;2023-02-28T02:18:38;2.40;99.90
56428;DHT22;42331;53.578;9.760;2023-02-28T02:24:17;2.40;99.90
56428;DHT22;42331;53.578;9.760;2023-02-28T02:27:33;2.40;99.90
56428;DHT22;42331;53.578;9.760;2023-02-28T02:33:06;2.40;99.90
56428;DHT22;42331;53.578;9.760;2023-02-28T02:35:56;2.40;99.90
56428;DHT22;42331;53.578;9.760;2023-02-28T02:38:39;2.40;99.90
56428;DHT22;42331;53.578;9.760;2023-02-28T02:44:27;2.50;99.90
56428;DHT22;42331;53.578;9.760;2023-02-28T02:47:05;2.50;99.90
56428;DHT22;42331;53.578;9.760;2023-02-28T02:49:39;2.40;99.90
56428;DHT22;42331;53.578;9.760;2023-02-28T02:52:13;2.30;99.90
56428;DHT22;42331;53.578;9.760;2023-02-28T02:54:46;2.30;99.90
56428;DHT22;42331;53.578;9.760;2023-02-28T02:57:24;2.30;99.90
56428;DHT22;42331;53.578;9.760;2023-02-28T02:59:57;2.20;99.90
56428;DHT22;42331;53.578;9.760;2023-02-28T03:02:28;2.20;99.90
56428;DHT22;42331;53.578;9.760;2023-02-28T03:05:20;2.20;99.90
56428;DHT22;42331;53.578;9.760;2023-02-28T03:07:53;2.20;99.90
56428;DHT22;42331;53.578;9.760;2023-02-28T03:10:34;2.20;99.90
56428;DHT22;42331;53.578;9.760;2023-02-28T03:19:47;2.00;99.90
56428;DHT22;42331;53.578;9.760;2023-02-28T03:22:45;2.00;99.90
56428;DHT22;42331;53.578;9.760;2023-02-28T03:25:39;1.90;99.90
56428;DHT22;42331;53.578;9.760;2023-02-28T03:28:32;2.00;99.90
56428;DHT22;42331;53.578;9.760;2023-02-28T03:31:10;1.90;99.90
56428;DHT22;42331;53.578;9.760;2023-02-28T03:36:50;1.90;99.90
56428;DHT22;42331;53.578;9.760;2023-02-28T03:39:54;1.80;99.90
56428;DHT22;42331;53.578;9.760;2023-02-28T03:43:02;1.80;99.90
56428;DHT22;42331;53.578;9.760;2023-02-28T03:45:37;1.70;99.90
56428;DHT22;42331;53.578;9.760;2023-02-28T03:48:35;1.70;99.90
56428;DHT22;42331;53.578;9.760;2023-02-28T03:51:10;1.50;99.90
56428;DHT22;42331;53.578;9.760;2023-02-28T03:53:46;1.50;99.90
56428;DHT22;42331;53.578;9.760;2023-02-28T03:56:19;1.50;99.90
56428;DHT22;42331;53.578;9.760;2023-02-28T04:01:41;1.30;99.90
56428;DHT22;42331;53.578;9.760;2023-02-28T04:04:14;1.20;99.90
56428;DHT22;42331;53.578;9.760;2023-02-28T04:06:45;1.10;99.90
56428;DHT22;42331;53.578;9.760;2023-02-28T04:09:16;1.00;99.90
56428;DHT22;42331;53.578;9.760;2023-02-28T04:11:51;0.80;99.90
56428;DHT22;42331;53.578;9.760;2023-02-28T04:14:22;0.70;99.90
56428;DHT22;42331;53.578;9.760;2023-02-28T04:16:53;0.60;99.90
56428;DHT22;42331;53.578;9.760;2023-02-28T04:19:24;0.60;99.90
56428;DHT22;42331;53.578;9.760;2023-02-28T04:21:55;0.60;99.90
56428;DHT22;42331;53.578;9.760;2023-02-28T04:24:27;0.50;99.90
56428;DHT22;42331;53.578;9.760;2023-02-28T04:26:58;0.60;99.90
56428;DHT22;42331;53.578;9.760;2023-02-28T04:29:31;0.60;99.90
56428;DHT22;42331;53.578;9.760;2023-02-28T04:32:05;0.60;99.90
56428;DHT22;42331;53.578;9.760;2023-02-28T04:34:36;0.50;99.90
56428;DHT22;42331;53.578;9.760;2023-02-28T04:37:06;0.50;99.90
56428;DHT22;42331;53.578;9.760;2023-02-28T04:39:38;0.50;99.90
56428;DHT22;42331;53.578;9.760;2023-02-28T04:42:09;0.40;99.90
56428;DHT22;42331;53.578;9.760;2023-02-28T04:44:40;0.50;99.90
56428;DHT22;42331;53.578;9.760;2023-02-28T04:47:11;0.50;99.90
56428;DHT22;42331;53.578;9.760;2023-02-28T04:49:41;0.50;99.90
56428;DHT22;42331;53.578;9.760;2023-02-28T04:52:12;0.40;99.90
56428;DHT22;42331;53.578;9.760;2023-02-28T04:54:43;0.50;99.90
56428;DHT22;42331;53.578;9.760;2023-02-28T04:57:14;0.50;99.90
56428;DHT22;42331;53.578;9.760;2023-02-28T04:59:45;0.60;99.90
56428;DHT22;42331;53.578;9.760;2023-02-28T05:02:15;0.60;99.90
56428;DHT22;42331;53.578;9.760;2023-02-28T05:04:46;0.50;99.90
56428;DHT22;42331;53.578;9.760;2023-02-28T05:07:17;0.50;99.90
56428;DHT22;42331;53.578;9.760;2023-02-28T05:09:47;0.20;99.90
56428;DHT22;42331;53.578;9.760;2023-02-28T05:12:18;0.30;99.90
56428;DHT22;42331;53.578;9.760;2023-02-28T05:14:49;0.20;99.90
56428;DHT22;42331;53.578;9.760;2023-02-28T05:17:20;0.30;99.90
56428;DHT22;42331;53.578;9.760;2023-02-28T05:19:50;0.20;99.90
56428;DHT22;42331;53.578;9.760;2023-02-28T05:22:21;0.20;99.90
56428;DHT22;42331;53.578;9.760;2023-02-28T05:24:52;0.10;99.90
56428;DHT22;42331;53.578;9.760;2023-02-28T05:27:22;0.00;99.90
56428;DHT22;42331;53.578;9.760;2023-02-28T05:29:53;-0.10;99.90
56428;DHT22;42331;53.578;9.760;2023-02-28T05:32:24;-0.10;99.90
56428;DHT22;42331;53.578;9.760;2023-02-28T05:34:54;-0.10;99.90
56428;DHT22;42331;53.578;9.760;2023-02-28T05:37:25;-0.20;99.90
56428;DHT22;42331;53.578;9.760;2023-02-28T05:40:01;-0.30;99.90
56428;DHT22;42331;53.578;9.760;2023-02-28T05:42:38;-0.20;99.90
56428;DHT22;42331;53.578;9.760;2023-02-28T05:45:09;-0.30;99.90
56428;DHT22;42331;53.578;9.760;2023-02-28T05:47:40;-0.30;99.90
56428;DHT22;42331;53.578;9.760;2023-02-28T05:50:11;-0.30;99.90
56428;DHT22;42331;53.578;9.760;2023-02-28T05:52:41;-0.30;99.90
56428;DHT22;42331;53.578;9.760;2023-02-28T05:55:12;-0.30;99.90
56428;DHT22;42331;53.578;9.760;2023-02-28T05:57:43;-0.30;99.90
56428;DHT22;42331;53.578;9.760;2023-02-28T06:00:14;-0.40;99.90
56428;DHT22;42331;53.578;9.760;2023-02-28T06:02:46;-0.40;99.90
56428;DHT22;42331;53.578;9.760;2023-02-28T06:05:17;-0.40;99.90
56428;DHT22;42331;53.578;9.760;2023-02-28T06:07:57;-0.50;99.90
56428;DHT22;42331;53.578;9.760;2023-02-28T06:10:28;-0.50;99.90
56428;DHT22;42331;53.578;9.760;2023-02-28T06:13:05;-0.50;99.90
56428;DHT22;42331;53.578;9.760;2023-02-28T06:15:36;-0.50;99.90
56428;DHT22;42331;53.578;9.760;2023-02-28T06:18:07;-0.50;99.90
56428;DHT22;42331;53.578;9.760;2023-02-28T06:20:37;-0.50;99.90
56428;DHT22;42331;53.578;9.760;2023-02-28T06:23:08;-0.50;99.90
56428;DHT22;42331;53.578;9.760;2023-02-28T06:25:39;-0.50;99.90
56428;DHT22;42331;53.578;9.760;2023-02-28T06:28:09;-0.40;99.90
56428;DHT22;42331;53.578;9.760;2023-02-28T06:30:43;-0.50;99.90
56428;DHT22;42331;53.578;9.760;2023-02-28T06:33:13;-0.50;99.90
56428;DHT22;42331;53.578;9.760;2023-02-28T06:35:59;-0.50;99.90
56428;DHT22;42331;53.578;9.760;2023-02-28T06:38:32;-0.50;99.90
56428;DHT22;42331;53.578;9.760;2023-02-28T06:41:07;-0.50;99.90
56428;DHT22;42331;53.578;9.760;2023-02-28T06:43:42;-0.50;99.90
56428;DHT22;42331;53.578;9.760;2023-02-28T06:46:14;-0.50;99.90
56428;DHT22;42331;53.578;9.760;2023-02-28T06:48:45;-0.50;99.90
56428;DHT22;42331;53.578;9.760;2023-02-28T06:51:18;-0.50;99.90
56428;DHT22;42331;53.578;9.760;2023-02-28T06:53:52;-0.30;99.90
56428;DHT22;42331;53.578;9.760;2023-02-28T06:56:23;-0.30;99.90
56428;DHT22;42331;53.578;9.760;2023-02-28T06:58:54;-0.30;99.90
56428;DHT22;42331;53.578;9.760;2023-02-28T07:01:24;-0.20;99.90
56428;DHT22;42331;53.578;9.760;2023-02-28T07:03:55;-0.20;99.90
56428;DHT22;42331;53.578;9.760;2023-02-28T07:06:35;-0.10;99.90
56428;DHT22;42331;53.578;9.760;2023-02-28T07:09:06;-0.10;99.90
56428;DHT22;42331;53.578;9.760;2023-02-28T07:11:37;0.00;99.90
56428;DHT22;42331;53.578;9.760;2023-02-28T07:14:10;0.00;99.90
56428;DHT22;42331;53.578;9.760;2023-02-28T07:16:46;0.20;99.90
56428;DHT22;42331;53.578;9.760;2023-02-28T07:19:28;0.20;99.90
56428;DHT22;42331;53.578;9.760;2023-02-28T07:22:31;0.30;99.90
56428;DHT22;42331;53.578;9.760;2023-02-28T07:25:15;0.50;99.90
56428;DHT22;42331;53.578;9.760;2023-02-28T07:27:58;0.60;99.90
56428;DHT22;42331;53.578;9.760;2023-02-28T07:30:31;0.70;99.90
56428;DHT22;42331;53.578;9.760;2023-02-28T07:33:08;0.90;99.90
56428;DHT22;42331;53.578;9.760;2023-02-28T07:35:42;1.00;99.90
56428;DHT22;42331;53.578;9.760;2023-02-28T07:38:32;1.10;99.90
56428;DHT22;42331;53.578;9.760;2023-02-28T07:41:35;1.20;99.90
56428;DHT22;42331;53.578;9.760;2023-02-28T07:44:20;1.30;99.90
56428;DHT22;42331;53.578;9.760;2023-02-28T07:47:00;1.50;99.90
56428;DHT22;42331;53.578;9.760;2023-02-28T07:49:37;1.60;99.90
56428;DHT22;42331;53.578;9.760;2023-02-28T07:52:08;1.70;99.90
56428;DHT22;42331;53.578;9.760;2023-02-28T07:54:39;1.80;99.90
56428;DHT22;42331;53.578;9.760;2023-02-28T07:57:12;1.80;99.90
56428;DHT22;42331;53.578;9.760;2023-02-28T07:59:43;1.90;99.90
56428;DHT22;42331;53.578;9.760;2023-02-28T08:02:17;1.90;99.90
56428;DHT22;42331;53.578;9.760;2023-02-28T08:04:48;2.00;99.90
56428;DHT22;42331;53.578;9.760;2023-02-28T08:07:22;2.10;99.90
56428;DHT22;42331;53.578;9.760;2023-02-28T08:09:53;2.20;99.90
56428;DHT22;42331;53.578;9.760;2023-02-28T08:12:24;2.20;99.90
56428;DHT22;42331;53.578;9.760;2023-02-28T08:14:55;2.30;99.90
56428;DHT22;42331;53.578;9.760;2023-02-28T08:17:26;2.40;99.90
56428;DHT22;42331;53.578;9.760;2023-02-28T08:20:00;2.60;99.90
56428;DHT22;42331;53.578;9.760;2023-02-28T08:22:31;2.80;99.90
56428;DHT22;42331;53.578;9.760;2023-02-28T08:25:01;2.80;99.90
56428;DHT22;42331;53.578;9.760;2023-02-28T08:27:33;2.90;99.90
56428;DHT22;42331;53.578;9.760;2023-02-28T08:30:04;3.10;99.90
56428;DHT22;42331;53.578;9.760;2023-02-28T08:32:35;3.20;99.90
56428;DHT22;42331;53.578;9.760;2023-02-28T08:35:06;3.30;99.90
56428;DHT22;42331;53.578;9.760;2023-02-28T08:37:37;3.40;99.90
56428;DHT22;42331;53.578;9.760;2023-02-28T08:40:12;3.50;99.90
56428;DHT22;42331;53.578;9.760;2023-02-28T08:42:48;3.60;99.90
56428;DHT22;42331;53.578;9.760;2023-02-28T08:45:20;3.60;99.90
56428;DHT22;42331;53.578;9.760;2023-02-28T08:47:50;3.90;99.90
56428;DHT22;42331;53.578;9.760;2023-02-28T08:50:31;3.90;99.90
56428;DHT22;42331;53.578;9.760;2023-02-28T08:53:28;4.00;99.90
56428;DHT22;42331;53.578;9.760;2023-02-28T08:56:06;4.20;99.90
56428;DHT22;42331;53.578;9.760;2023-02-28T08:58:56;4.20;99.90
56428;DHT22;42331;53.578;9.760;2023-02-28T09:01:40;4.20;99.90
56428;DHT22;42331;53.578;9.760;2023-02-28T09:04:37;4.40;99.90
56428;DHT22;42331;53.578;9.760;2023-02-28T09:07:22;4.60;99.90
56428;DHT22;42331;53.578;9.760;2023-02-28T09:10:03;4.70;99.90
56428;DHT22;42331;53.578;9.760;2023-02-28T09:12:43;4.90;99.90
56428;DHT22;42331;53.578;9.760;2023-02-28T09:15:37;5.10;99.90
56428;DHT22;42331;53.578;9.760;2023-02-28T09:18:34;5.20;99.90
56428;DHT22;42331;53.578;9.760;2023-02-28T09:21:28;5.50;99.90
56428;DHT22;42331;53.578;9.760;2023-02-28T09:24:14;5.50;99.90
56428;DHT22;42331;53.578;9.760;2023-02-28T09:26:56;5.80;99.90
56428;DHT22;42331;53.578;9.760;2023-02-28T09:29:39;5.80;99.90
56428;DHT22;42331;53.578;9.760;2023-02-28T09:32:20;5.70;99.90
56428;DHT22;42331;53.578;9.760;2023-02-28T09:34:56;5.80;99.90
56428;DHT22;42331;53.578;9.760;2023-02-28T09:37:29;6.20;99.90
56428;DHT22;42331;53.578;9.760;2023-02-28T09:40:04;6.30;99.90
56428;DHT22;42331;53.578;9.760;2023-02-28T09:42:35;6.30;99.90
56428;DHT22;42331;53.578;9.760;2023-02-28T09:45:28;6.20;99.90
56428;DHT22;42331;53.578;9.760;2023-02-28T09:48:12;6.60;99.90
56428;DHT22;42331;53.578;9.760;2023-02-28T09:50:59;6.70;99.90
56428;DHT22;42331;53.578;9.760;2023-02-28T09:53:36;6.60;99.90
56428;DHT22;42331;53.578;9.760;2023-02-28T09:56:14;6.80;99.90
56428;DHT22;42331;53.578;9.760;2023-02-28T09:58:54;7.00;99.90
56428;DHT22;42331;53.578;9.760;2023-02-28T10:01:42;6.90;99.90
56428;DHT22;42331;53.578;9.760;2023-02-28T10:10:24;7.10;99.90
56428;DHT22;42331;53.578;9.760;2023-02-28T10:12:59;6.90;99.90
56428;DHT22;42331;53.578;9.760;2023-02-28T10:15:31;7.00;99.90
56428;DHT22;42331;53.578;9.760;2023-02-28T10:18:06;7.40;99.90
56428;DHT22;42331;53.578;9.760;2023-02-28T10:20:41;7.90;99.90
56428;DHT22;42331;53.578;9.760;2023-02-28T10:23:21;8.50;99.90
56428;DHT22;42331;53.578;9.760;2023-02-28T10:25:59;9.00;99.90
56428;DHT22;42331;53.578;9.760;2023-02-28T10:28:30;9.10;99.90
56428;DHT22;42331;53.578;9.760;2023-02-28T10:31:02;9.70;99.90
56428;DHT22;42331;53.578;9.760;2023-02-28T10:33:34;10.40;99.90
56428;DHT22;42331;53.578;9.760;2023-02-28T10:36:06;12.20;99.90
56428;DHT22;42331;53.578;9.760;2023-02-28T10:38:39;13.50;99.90
56428;DHT22;42331;53.578;9.760;2023-02-28T10:41:15;13.80;99.90
56428;DHT22;42331;53.578;9.760;2023-02-28T10:43:46;13.50;99.90
56428;DHT22;42331;53.578;9.760;2023-02-28T10:46:19;13.40;99.90
56428;DHT22;42331;53.578;9.760;2023-02-28T10:49:05;13.60;99.90
56428;DHT22;42331;53.578;9.760;2023-02-28T10:51:39;14.10;99.90
56428;DHT22;42331;53.578;9.760;2023-02-28T10:54:20;14.90;99.90
56428;DHT22;42331;53.578;9.760;2023-02-28T10:57:15;15.70;99.90
56428;DHT22;42331;53.578;9.760;2023-02-28T10:59:50;15.90;99.90
56428;DHT22;42331;53.578;9.760;2023-02-28T11:02:36;16.20;99.90
56428;DHT22;42331;53.578;9.760;2023-02-28T11:08:05;16.30;98.00
56428;DHT22;42331;53.578;9.760;2023-02-28T11:10:36;16.00;95.90
56428;DHT22;42331;53.578;9.760;2023-02-28T11:13:17;15.70;96.40
56428;DHT22;42331;53.578;9.760;2023-02-28T11:15:55;15.50;95.10
56428;DHT22;42331;53.578;9.760;2023-02-28T11:21:19;17.30;92.90
56428;DHT22;42331;53.578;9.760;2023-02-28T11:23:53;16.60;91.90
56428;DHT22;42331;53.578;9.760;2023-02-28T11:26:38;14.90;92.40
56428;DHT22;42331;53.578;9.760;2023-02-28T11:29:15;12.60;95.30
56428;DHT22;42331;53.578;9.760;2023-02-28T11:34:43;9.40;99.30
56428;DHT22;42331;53.578;9.760;2023-02-28T11:37:18;8.20;99.90
56428;DHT22;42331;53.578;9.760;2023-02-28T11:39:49;7.80;99.90
56428;DHT22;42331;53.578;9.760;2023-02-28T11:42:48;7.60;99.90
56428;DHT22;42331;53.578;9.760;2023-02-28T11:48:31;7.50;99.90
56428;DHT22;42331;53.578;9.760;2023-02-28T11:51:20;7.40;99.90
56428;DHT22;42331;53.578;9.760;2023-02-28T11:56:41;7.20;99.90
56428;DHT22;42331;53.578;9.760;2023-02-28T12:00:06;7.10;99.90
56428;DHT22;42331;53.578;9.760;2023-02-28T12:02:35;6.90;99.90
56428;DHT22;42331;53.578;9.760;2023-02-28T12:05:27;6.70;99.90
56428;DHT22;42331;53.578;9.760;2023-02-28T12:11:27;6.70;99.90
56428;DHT22;42331;53.578;9.760;2023-02-28T12:22:29;6.60;99.90
56428;DHT22;42331;53.578;9.760;2023-02-28T12:27:41;6.60;99.90
56428;DHT22;42331;53.578;9.760;2023-02-28T12:30:18;6.70;99.90
56428;DHT22;42331;53.578;9.760;2023-02-28T12:33:00;6.80;99.90
56428;DHT22;42331;53.578;9.760;2023-02-28T12:35:43;6.60;99.90
56428;DHT22;42331;53.578;9.760;2023-02-28T12:38:24;6.60;99.90
56428;DHT22;42331;53.578;9.760;2023-02-28T12:43:45;6.90;99.90
56428;DHT22;42331;53.578;9.760;2023-02-28T12:46:29;6.90;99.90
56428;DHT22;42331;53.578;9.760;2023-02-28T12:49:06;6.90;99.90
56428;DHT22;42331;53.578;9.760;2023-02-28T12:51:38;7.00;99.90
56428;DHT22;42331;53.578;9.760;2023-02-28T12:54:41;6.90;99.90
56428;DHT22;42331;53.578;9.760;2023-02-28T12:57:48;6.90;99.90
56428;DHT22;42331;53.578;9.760;2023-02-28T13:00:23;6.90;99.90
56428;DHT22;42331;53.578;9.760;2023-02-28T13:11:39;6.90;99.90
56428;DHT22;42331;53.578;9.760;2023-02-28T13:14:37;7.00;99.90
56428;DHT22;42331;53.578;9.760;2023-02-28T13:22:57;6.50;99.90
56428;DHT22;42331;53.578;9.760;2023-02-28T13:28:13;6.70;99.90
56428;DHT22;42331;53.578;9.760;2023-02-28T13:31:04;7.00;99.90
56428;DHT22;42331;53.578;9.760;2023-02-28T13:33:36;6.90;99.90
56428;DHT22;42331;53.578;9.760;2023-02-28T13:49:27;6.40;99.90
56428;DHT22;42331;53.578;9.760;2023-02-28T13:54:58;6.50;99.90
56428;DHT22;42331;53.578;9.760;2023-02-28T14:06:35;6.50;99.90
56428;DHT22;42331;53.578;9.760;2023-02-28T14:11:56;6.50;99.90
56428;DHT22;42331;53.578;9.760;2023-02-28T14:17:12;6.60;99.90
56428;DHT22;42331;53.578;9.760;2023-02-28T14:19:46;6.60;99.90
56428;DHT22;42331;53.578;9.760;2023-02-28T14:22:42;6.60;99.90
56428;DHT22;42331;53.578;9.760;2023-02-28T14:30:57;6.60;99.90
56428;DHT22;42331;53.578;9.760;2023-02-28T14:36:21;6.70;99.90
56428;DHT22;42331;53.578;9.760;2023-02-28T14:38:57;6.60;99.90
56428;DHT22;42331;53.578;9.760;2023-02-28T14:44:26;6.70;99.90
56428;DHT22;42331;53.578;9.760;2023-02-28T14:46:59;6.70;99.90
56428;DHT22;42331;53.578;9.760;2023-02-28T14:49:42;6.60;99.90
56428;DHT22;42331;53.578;9.760;2023-02-28T14:52:21;6.70;99.90
56428;DHT22;42331;53.578;9.760;2023-02-28T14:54:59;6.70;99.90
56428;DHT22;42331;53.578;9.760;2023-02-28T14:57:33;6.70;99.90
56428;DHT22;42331;53.578;9.760;2023-02-28T15:00:14;6.60;99.90
56428;DHT22;42331;53.578;9.760;2023-02-28T15:02:45;6.60;99.90
56428;DHT22;42331;53.578;9.760;2023-02-28T15:08:06;6.70;99.90
56428;DHT22;42331;53.578;9.760;2023-02-28T15:10:44;6.80;99.90
56428;DHT22;42331;53.578;9.760;2023-02-28T15:13:16;6.80;99.90
56428;DHT22;42331;53.578;9.760;2023-02-28T15:15:58;6.80;99.90
56428;DHT22;42331;53.578;9.760;2023-02-28T15:18:50;6.80;99.90
56428;DHT22;42331;53.578;9.760;2023-02-28T15:21:32;6.70;99.90
56428;DHT22;42331;53.578;9.760;2023-02-28T15:24:38;6.60;99.90
56428;DHT22;42331;53.578;9.760;2023-02-28T15:27:27;6.60;99.90
56428;DHT22;42331;53.578;9.760;2023-02-28T15:30:07;6.50;99.90
56428;DHT22;42331;53.578;9.760;2023-02-28T15:32:45;6.40;99.90
56428;DHT22;42331;53.578;9.760;2023-02-28T15:35:32;6.40;99.90
56428;DHT22;42331;53.578;9.760;2023-02-28T15:38:17;6.40;99.90
56428;DHT22;42331;53.578;9.760;2023-02-28T15:40:57;6.40;99.90
56428;DHT22;42331;53.578;9.760;2023-02-28T15:43:33;6.40;99.90
56428;DHT22;42331;53.578;9.760;2023-02-28T15:46:12;6.30;99.90
56428;DHT22;42331;53.578;9.760;2023-02-28T15:51:33;6.10;99.90
56428;DHT22;42331;53.578;9.760;2023-02-28T15:54:12;6.10;99.90
56428;DHT22;42331;53.578;9.760;2023-02-28T15:56:47;6.00;99.90
56428;DHT22;42331;53.578;9.760;2023-02-28T15:59:29;6.00;99.90
56428;DHT22;42331;53.578;9.760;2023-02-28T16:04:56;6.00;99.90
56428;DHT22;42331;53.578;9.760;2023-02-28T16:07:28;5.90;99.90
56428;DHT22;42331;53.578;9.760;2023-02-28T16:09:59;5.80;99.90
56428;DHT22;42331;53.578;9.760;2023-02-28T16:12:32;5.80;99.90
56428;DHT22;42331;53.578;9.760;2023-02-28T16:15:17;5.70;99.90
56428;DHT22;42331;53.578;9.760;2023-02-28T16:17:49;5.70;99.90
56428;DHT22;42331;53.578;9.760;2023-02-28T16:20:30;5.50;99.90
56428;DHT22;42331;53.578;9.760;2023-02-28T16:23:01;5.50;99.90
56428;DHT22;42331;53.578;9.760;2023-02-28T16:25:41;5.40;99.90
56428;DHT22;42331;53.578;9.760;2023-02-28T16:28:22;5.30;99.90
56428;DHT22;42331;53.578;9.760;2023-02-28T16:30:54;5.20;99.90
56428;DHT22;42331;53.578;9.760;2023-02-28T16:33:25;5.10;99.90
56428;DHT22;42331;53.578;9.760;2023-02-28T16:35:56;5.00;99.90
56428;DHT22;42331;53.578;9.760;2023-02-28T16:38:27;4.90;99.90
56428;DHT22;42331;53.578;9.760;2023-02-28T16:41:00;4.70;99.90
56428;DHT22;42331;53.578;9.760;2023-02-28T16:43:31;4.60;99.90
56428;DHT22;42331;53.578;9.760;2023-02-28T16:46:02;4.40;99.90
56428;DHT22;42331;53.578;9.760;2023-02-28T16:48:34;4.30;99.90
56428;DHT22;42331;53.578;9.760;2023-02-28T16:51:05;4.10;99.90
56428;DHT22;42331;53.578;9.760;2023-02-28T16:53:35;4.00;99.90
56428;DHT22;42331;53.578;9.760;2023-02-28T16:56:06;3.80;99.90
56428;DHT22;42331;53.578;9.760;2023-02-28T16:58:41;3.70;99.90
56428;DHT22;42331;53.578;9.760;2023-02-28T17:01:12;3.70;99.90
56428;DHT22;42331;53.578;9.760;2023-02-28T17:03:43;3.50;99.90
56428;DHT22;42331;53.578;9.760;2023-02-28T17:06:23;3.40;99.90
56428;DHT22;42331;53.578;9.760;2023-02-28T17:08:54;3.40;99.90
56428;DHT22;42331;53.578;9.760;2023-02-28T17:11:26;3.30;99.90
56428;DHT22;42331;53.578;9.760;2023-02-28T17:13:56;3.20;99.90
56428;DHT22;42331;53.578;9.760;2023-02-28T17:16:32;3.10;99.90
56428;DHT22;42331;53.578;9.760;2023-02-28T17:19:06;3.00;99.90
56428;DHT22;42331;53.578;9.760;2023-02-28T17:21:37;2.90;99.90
56428;DHT22;42331;53.578;9.760;2023-02-28T17:24:08;2.80;99.90
56428;DHT22;42331;53.578;9.760;2023-02-28T17:26:41;2.80;99.90
56428;DHT22;42331;53.578;9.760;2023-02-28T17:29:20;2.70;99.90
56428;DHT22;42331;53.578;9.760;2023-02-28T17:31:51;2.70;99.90
56428;DHT22;42331;53.578;9.760;2023-02-28T17:34:22;2.60;99.90
56428;DHT22;42331;53.578;9.760;2023-02-28T17:36:53;2.60;99.90
56428;DHT22;42331;53.578;9.760;2023-02-28T17:39:23;2.50;99.90
56428;DHT22;42331;53.578;9.760;2023-02-28T17:41:55;2.40;99.90
56428;DHT22;42331;53.578;9.760;2023-02-28T17:44:26;2.30;99.90
56428;DHT22;42331;53.578;9.760;2023-02-28T17:46:56;2.30;99.90
56428;DHT22;42331;53.578;9.760;2023-02-28T17:49:27;2.30;99.90
56428;DHT22;42331;53.578;9.760;2023-02-28T17:51:58;2.20;99.90
56428;DHT22;42331;53.578;9.760;2023-02-28T17:54:29;2.10;99.90
56428;DHT22;42331;53.578;9.760;2023-02-28T17:57:00;2.00;99.90
56428;DHT22;42331;53.578;9.760;2023-02-28T17:59:30;2.00;99.90
56428;DHT22;42331;53.578;9.760;2023-02-28T18:02:03;1.90;99.90
56428;DHT22;42331;53.578;9.760;2023-02-28T18:04:34;1.90;99.90
56428;DHT22;42331;53.578;9.760;2023-02-28T18:07:06;1.80;99.90
56428;DHT22;42331;53.578;9.760;2023-02-28T18:09:37;1.80;99.90
56428;DHT22;42331;53.578;9.760;2023-02-28T18:12:08;1.70;99.90
56428;DHT22;42331;53.578;9.760;2023-02-28T18:14:42;1.70;99.90
56428;DHT22;42331;53.578;9.760;2023-02-28T18:17:13;1.60;99.90
56428;DHT22;42331;53.578;9.760;2023-02-28T18:19:44;1.60;99.90
56428;DHT22;42331;53.578;9.760;2023-02-28T18:22:14;1.50;99.90
56428;DHT22;42331;53.578;9.760;2023-02-28T18:24:45;1.50;99.90
56428;DHT22;42331;53.578;9.760;2023-02-28T18:27:16;1.40;99.90
56428;DHT22;42331;53.578;9.760;2023-02-28T18:29:46;1.40;99.90
56428;DHT22;42331;53.578;9.760;2023-02-28T18:32:19;1.30;99.90
56428;DHT22;42331;53.578;9.760;2023-02-28T18:34:49;1.30;99.90
56428;DHT22;42331;53.578;9.760;2023-02-28T18:37:20;1.30;99.90
56428;DHT22;42331;53.578;9.760;2023-02-28T18:39:52;1.20;99.90
56428;DHT22;42331;53.578;9.760;2023-02-28T18:42:23;1.20;99.90
56428;DHT22;42331;53.578;9.760;2023-02-28T18:44:54;1.20;99.90
56428;DHT22;42331;53.578;9.760;2023-02-28T18:47:25;1.10;99.90
56428;DHT22;42331;53.578;9.760;2023-02-28T18:49:56;1.10;99.90